sensor_id;sensor_type;location;lat;lon;timestamp;temperature;humidity
13326;DHT22;6732;51.044;3.746;2023-01-16T00:01:54;7.10;99.90
13326;DHT22;6732;51.044;3.746;2023-01-16T00:04:21;7.00;99.90
13326;DHT22;6732;51.044;3.746;2023-01-16T00:06:47;7.00;99.90
13326;DHT22;6732;51.044;3.746;2023-01-16T00:09:14;7.00;99.90
13326;DHT22;6732;51.044;3.746;2023-01-16T00:11:39;7.00;99.90
13326;DHT22;6732;51.044;3.746;2023-01-16T00:14:06;7.00;99.90
13326;DHT22;6732;51.044;3.746;2023-01-16T00:16:32;7.00;99.90
13326;DHT22;6732;51.044;3.746;2023-01-16T00:18:58;7.00;99.90
13326;DHT22;6732;51.044;3.746;2023-01-16T00:21:24;7.00;99.90
13326;DHT22;6732;51.044;3.746;2023-01-16T00:23:57;7.00;99.90
13326;DHT22;6732;51.044;3.746;2023-01-16T00:26:24;7.00;99.90
13326;DHT22;6732;51.044;3.746;2023-01-16T00:28:50;7.00;99.90
13326;DHT22;6732;51.044;3.746;2023-01-16T00:31:16;7.00;99.90
13326;DHT22;6732;51.044;3.746;2023-01-16T00:33:42;7.00;99.90
13326;DHT22;6732;51.044;3.746;2023-01-16T00:36:12;6.90;99.90
13326;DHT22;6732;51.044;3.746;2023-01-16T00:38:38;7.00;99.90
13326;DHT22;6732;51.044;3.746;2023-01-16T00:41:04;6.90;99.90
13326;DHT22;6732;51.044;3.746;2023-01-16T00:43:31;6.90;99.90
13326;DHT22;6732;51.044;3.746;2023-01-16T00:45:57;6.90;99.90
13326;DHT22;6732;51.044;3.746;2023-01-16T00:48:23;6.90;99.90
13326;DHT22;6732;51.044;3.746;2023-01-16T00:50:49;6.90;99.90
13326;DHT22;6732;51.044;3.746;2023-01-16T00:53:16;6.90;99.90
13326;DHT22;6732;51.044;3.746;2023-01-16T00:55:42;6.90;99.90
13326;DHT22;6732;51.044;3.746;2023-01-16T00:58:09;6.90;99.90
13326;DHT22;6732;51.044;3.746;2023-01-16T01:00:37;6.90;99.90
13326;DHT22;6732;51.044;3.746;2023-01-16T01:03:04;6.90;99.90
13326;DHT22;6732;51.044;3.746;2023-01-16T01:05:30;6.90;99.90
13326;DHT22;6732;51.044;3.746;2023-01-16T01:07:56;6.90;99.90
13326;DHT22;6732;51.044;3.746;2023-01-16T01:10:23;6.90;99.90
13326;DHT22;6732;51.044;3.746;2023-01-16T01:12:53;6.90;99.90
13326;DHT22;6732;51.044;3.746;2023-01-16T01:15:19;6.80;99.90
13326;DHT22;6732;51.044;3.746;2023-01-16T01:17:45;6.90;99.90
13326;DHT22;6732;51.044;3.746;2023-01-16T01:20:10;6.80;99.90
13326;DHT22;6732;51.044;3.746;2023-01-16T01:22:36;6.90;99.90
13326;DHT22;6732;51.044;3.746;2023-01-16T01:25:02;6.90;99.90
13326;DHT22;6732;51.044;3.746;2023-01-16T01:27:28;6.90;99.90
13326;DHT22;6732;51.044;3.746;2023-01-16T01:29:54;6.90;99.90
13326;DHT22;6732;51.044;3.746;2023-01-16T01:32:20;6.90;99.90
13326;DHT22;6732;51.044;3.746;2023-01-16T01:34:45;6.90;99.90
13326;DHT22;6732;51.044;3.746;2023-01-16T01:37:11;6.80;99.90
13326;DHT22;6732;51.044;3.746;2023-01-16T01:39:37;6.90;99.90
13326;DHT22;6732;51.044;3.746;2023-01-16T01:42:03;6.80;99.90
13326;DHT22;6732;51.044;3.746;2023-01-16T01:47:17;6.80;99.90
13326;DHT22;6732;51.044;3.746;2023-01-16T01:49:46;6.80;99.90
13326;DHT22;6732;51.044;3.746;2023-01-16T01:52:13;6.80;99.90
13326;DHT22;6732;51.044;3.746;2023-01-16T01:54:45;6.80;99.90
13326;DHT22;6732;51.044;3.746;2023-01-16T01:57:27;6.80;99.90
13326;DHT22;6732;51.044;3.746;2023-01-16T02:00:18;6.80;99.90
13326;DHT22;6732;51.044;3.746;2023-01-16T02:05:29;6.80;99.90
13326;DHT22;6732;51.044;3.746;2023-01-16T02:07:57;6.80;99.90
13326;DHT22;6732;51.044;3.746;2023-01-16T02:10:37;6.80;99.90
13326;DHT22;6732;51.044;3.746;2023-01-16T02:13:04;6.80;99.90
13326;DHT22;6732;51.044;3.746;2023-01-16T02:15:31;6.80;99.90
13326;DHT22;6732;51.044;3.746;2023-01-16T02:17:57;6.80;99.90
13326;DHT22;6732;51.044;3.746;2023-01-16T02:21:32;6.80;99.90
13326;DHT22;6732;51.044;3.746;2023-01-16T02:27:06;6.80;99.90
13326;DHT22;6732;51.044;3.746;2023-01-16T02:32:32;6.80;99.90
13326;DHT22;6732;51.044;3.746;2023-01-16T02:38:32;6.80;99.90
13326;DHT22;6732;51.044;3.746;2023-01-16T02:40:58;6.80;99.90
13326;DHT22;6732;51.044;3.746;2023-01-16T02:43:52;6.80;99.90
13326;DHT22;6732;51.044;3.746;2023-01-16T02:46:32;6.80;99.90
13326;DHT22;6732;51.044;3.746;2023-01-16T02:51:37;6.80;99.90
13326;DHT22;6732;51.044;3.746;2023-01-16T02:54:15;6.80;99.90
13326;DHT22;6732;51.044;3.746;2023-01-16T02:56:47;6.80;99.90
13326;DHT22;6732;51.044;3.746;2023-01-16T02:59:15;6.80;99.90
13326;DHT22;6732;51.044;3.746;2023-01-16T03:01:45;6.80;99.90
13326;DHT22;6732;51.044;3.746;2023-01-16T03:04:49;6.80;99.90
13326;DHT22;6732;51.044;3.746;2023-01-16T03:18:51;6.90;99.90
13326;DHT22;6732;51.044;3.746;2023-01-16T03:26:51;6.90;99.90
13326;DHT22;6732;51.044;3.746;2023-01-16T03:29:30;6.90;99.90
13326;DHT22;6732;51.044;3.746;2023-01-16T03:32:07;6.90;99.90
13326;DHT22;6732;51.044;3.746;2023-01-16T03:37:15;6.90;99.90
13326;DHT22;6732;51.044;3.746;2023-01-16T03:40:00;6.90;99.90
13326;DHT22;6732;51.044;3.746;2023-01-16T03:42:43;6.90;99.90
13326;DHT22;6732;51.044;3.746;2023-01-16T03:45:16;6.90;99.90
13326;DHT22;6732;51.044;3.746;2023-01-16T03:48:04;6.90;99.90
13326;DHT22;6732;51.044;3.746;2023-01-16T03:50:33;7.00;99.90
13326;DHT22;6732;51.044;3.746;2023-01-16T03:53:12;7.00;99.90
13326;DHT22;6732;51.044;3.746;2023-01-16T03:55:45;7.00;99.90
13326;DHT22;6732;51.044;3.746;2023-01-16T03:58:28;7.00;99.90
13326;DHT22;6732;51.044;3.746;2023-01-16T04:04:03;7.00;99.90
13326;DHT22;6732;51.044;3.746;2023-01-16T04:06:44;7.00;99.90
13326;DHT22;6732;51.044;3.746;2023-01-16T04:09:20;7.00;99.90
13326;DHT22;6732;51.044;3.746;2023-01-16T04:11:49;7.00;99.90
13326;DHT22;6732;51.044;3.746;2023-01-16T04:14:16;7.00;99.90
13326;DHT22;6732;51.044;3.746;2023-01-16T04:16:44;7.00;99.90
13326;DHT22;6732;51.044;3.746;2023-01-16T04:19:12;7.00;99.90
13326;DHT22;6732;51.044;3.746;2023-01-16T04:21:43;7.00;99.90
13326;DHT22;6732;51.044;3.746;2023-01-16T04:24:09;7.00;99.90
13326;DHT22;6732;51.044;3.746;2023-01-16T04:26:36;7.00;99.90
13326;DHT22;6732;51.044;3.746;2023-01-16T04:29:02;7.00;99.90
13326;DHT22;6732;51.044;3.746;2023-01-16T04:31:28;7.00;99.90
13326;DHT22;6732;51.044;3.746;2023-01-16T04:33:54;7.00;99.90
13326;DHT22;6732;51.044;3.746;2023-01-16T04:36:21;7.00;99.90
13326;DHT22;6732;51.044;3.746;2023-01-16T04:38:47;7.00;99.90
13326;DHT22;6732;51.044;3.746;2023-01-16T04:41:13;7.10;99.90
13326;DHT22;6732;51.044;3.746;2023-01-16T04:43:59;7.00;99.90
13326;DHT22;6732;51.044;3.746;2023-01-16T04:46:24;7.10;99.90
13326;DHT22;6732;51.044;3.746;2023-01-16T04:48:50;7.10;99.90
13326;DHT22;6732;51.044;3.746;2023-01-16T04:51:16;7.10;99.90
13326;DHT22;6732;51.044;3.746;2023-01-16T04:53:42;7.00;99.90
13326;DHT22;6732;51.044;3.746;2023-01-16T04:56:08;7.10;99.90
13326;DHT22;6732;51.044;3.746;2023-01-16T04:58:34;7.10;99.90
13326;DHT22;6732;51.044;3.746;2023-01-16T05:01:00;7.10;99.90
13326;DHT22;6732;51.044;3.746;2023-01-16T05:03:26;7.10;99.90
13326;DHT22;6732;51.044;3.746;2023-01-16T05:05:52;7.10;99.90
13326;DHT22;6732;51.044;3.746;2023-01-16T05:08:18;7.10;99.90
13326;DHT22;6732;51.044;3.746;2023-01-16T05:10:44;7.10;99.90
13326;DHT22;6732;51.044;3.746;2023-01-16T05:13:10;7.10;99.90
13326;DHT22;6732;51.044;3.746;2023-01-16T05:15:36;7.10;99.90
13326;DHT22;6732;51.044;3.746;2023-01-16T05:18:02;7.10;99.90
13326;DHT22;6732;51.044;3.746;2023-01-16T05:20:28;7.10;99.90
13326;DHT22;6732;51.044;3.746;2023-01-16T05:22:54;7.00;99.90
13326;DHT22;6732;51.044;3.746;2023-01-16T05:25:19;7.10;99.90
13326;DHT22;6732;51.044;3.746;2023-01-16T05:27:49;7.10;99.90
13326;DHT22;6732;51.044;3.746;2023-01-16T05:30:16;7.10;99.90
13326;DHT22;6732;51.044;3.746;2023-01-16T05:32:43;7.10;99.90
13326;DHT22;6732;51.044;3.746;2023-01-16T05:35:09;7.10;99.90
13326;DHT22;6732;51.044;3.746;2023-01-16T05:37:35;7.10;99.90
13326;DHT22;6732;51.044;3.746;2023-01-16T05:40:02;7.10;99.90
13326;DHT22;6732;51.044;3.746;2023-01-16T05:42:28;7.10;99.90
13326;DHT22;6732;51.044;3.746;2023-01-16T05:44:53;7.00;99.90
13326;DHT22;6732;51.044;3.746;2023-01-16T05:47:20;7.10;99.90
13326;DHT22;6732;51.044;3.746;2023-01-16T05:49:46;7.10;99.90
13326;DHT22;6732;51.044;3.746;2023-01-16T05:52:13;7.10;99.90
13326;DHT22;6732;51.044;3.746;2023-01-16T05:54:39;7.00;99.90
13326;DHT22;6732;51.044;3.746;2023-01-16T05:57:05;7.00;99.90
13326;DHT22;6732;51.044;3.746;2023-01-16T05:59:31;7.00;99.90
13326;DHT22;6732;51.044;3.746;2023-01-16T06:01:57;7.00;99.90
13326;DHT22;6732;51.044;3.746;2023-01-16T06:04:24;7.00;99.90
13326;DHT22;6732;51.044;3.746;2023-01-16T06:06:50;7.00;99.90
13326;DHT22;6732;51.044;3.746;2023-01-16T06:09:16;7.00;99.90
13326;DHT22;6732;51.044;3.746;2023-01-16T06:11:42;7.10;99.90
13326;DHT22;6732;51.044;3.746;2023-01-16T06:14:08;7.00;99.90
13326;DHT22;6732;51.044;3.746;2023-01-16T06:16:34;7.10;99.90
13326;DHT22;6732;51.044;3.746;2023-01-16T06:19:01;7.00;99.90
13326;DHT22;6732;51.044;3.746;2023-01-16T06:21:27;7.00;99.90
13326;DHT22;6732;51.044;3.746;2023-01-16T06:23:53;7.00;99.90
13326;DHT22;6732;51.044;3.746;2023-01-16T06:26:19;7.10;99.90
13326;DHT22;6732;51.044;3.746;2023-01-16T06:28:46;7.00;99.90
13326;DHT22;6732;51.044;3.746;2023-01-16T06:31:12;7.00;99.90
13326;DHT22;6732;51.044;3.746;2023-01-16T06:33:38;7.00;99.90
13326;DHT22;6732;51.044;3.746;2023-01-16T06:36:04;7.00;99.90
13326;DHT22;6732;51.044;3.746;2023-01-16T06:38:30;7.00;99.90
13326;DHT22;6732;51.044;3.746;2023-01-16T06:40:56;7.00;99.90
13326;DHT22;6732;51.044;3.746;2023-01-16T06:43:23;7.00;99.90
13326;DHT22;6732;51.044;3.746;2023-01-16T06:45:49;7.00;99.90
13326;DHT22;6732;51.044;3.746;2023-01-16T06:48:15;7.00;99.90
13326;DHT22;6732;51.044;3.746;2023-01-16T06:50:41;6.90;99.90
13326;DHT22;6732;51.044;3.746;2023-01-16T06:53:07;6.90;99.90
13326;DHT22;6732;51.044;3.746;2023-01-16T06:55:33;7.00;99.90
13326;DHT22;6732;51.044;3.746;2023-01-16T06:57:59;6.90;99.90
13326;DHT22;6732;51.044;3.746;2023-01-16T07:00:25;6.90;99.90
13326;DHT22;6732;51.044;3.746;2023-01-16T07:02:55;6.90;99.90
13326;DHT22;6732;51.044;3.746;2023-01-16T07:05:23;6.90;99.90
13326;DHT22;6732;51.044;3.746;2023-01-16T07:07:49;6.90;99.90
13326;DHT22;6732;51.044;3.746;2023-01-16T07:10:16;6.90;99.90
13326;DHT22;6732;51.044;3.746;2023-01-16T07:12:42;6.90;99.90
13326;DHT22;6732;51.044;3.746;2023-01-16T07:15:08;6.90;99.90
13326;DHT22;6732;51.044;3.746;2023-01-16T07:17:53;6.90;99.90
13326;DHT22;6732;51.044;3.746;2023-01-16T07:20:38;6.90;99.90
13326;DHT22;6732;51.044;3.746;2023-01-16T07:23:33;6.90;99.90
13326;DHT22;6732;51.044;3.746;2023-01-16T07:26:03;6.90;99.90
13326;DHT22;6732;51.044;3.746;2023-01-16T07:28:31;6.90;99.90
13326;DHT22;6732;51.044;3.746;2023-01-16T07:30:57;6.90;99.90
13326;DHT22;6732;51.044;3.746;2023-01-16T07:33:24;6.90;99.90
13326;DHT22;6732;51.044;3.746;2023-01-16T07:35:50;6.90;99.90
13326;DHT22;6732;51.044;3.746;2023-01-16T07:38:16;6.90;99.90
13326;DHT22;6732;51.044;3.746;2023-01-16T07:40:41;6.90;99.90
13326;DHT22;6732;51.044;3.746;2023-01-16T07:43:07;6.90;99.90
13326;DHT22;6732;51.044;3.746;2023-01-16T07:45:33;6.90;99.90
13326;DHT22;6732;51.044;3.746;2023-01-16T07:47:59;6.90;99.90
13326;DHT22;6732;51.044;3.746;2023-01-16T07:50:27;6.90;99.90
13326;DHT22;6732;51.044;3.746;2023-01-16T07:52:53;6.90;99.90
13326;DHT22;6732;51.044;3.746;2023-01-16T07:55:18;6.90;99.90
13326;DHT22;6732;51.044;3.746;2023-01-16T07:57:44;6.90;99.90
13326;DHT22;6732;51.044;3.746;2023-01-16T08:00:11;6.90;99.90
13326;DHT22;6732;51.044;3.746;2023-01-16T08:02:39;6.90;99.90
13326;DHT22;6732;51.044;3.746;2023-01-16T08:05:05;6.90;99.90
13326;DHT22;6732;51.044;3.746;2023-01-16T08:07:32;6.90;99.90
13326;DHT22;6732;51.044;3.746;2023-01-16T08:09:58;6.90;99.90
13326;DHT22;6732;51.044;3.746;2023-01-16T08:12:23;6.90;99.90
13326;DHT22;6732;51.044;3.746;2023-01-16T08:14:49;6.90;99.90
13326;DHT22;6732;51.044;3.746;2023-01-16T08:17:15;6.90;99.90
13326;DHT22;6732;51.044;3.746;2023-01-16T08:19:41;6.90;99.90
13326;DHT22;6732;51.044;3.746;2023-01-16T08:22:07;6.90;99.90
13326;DHT22;6732;51.044;3.746;2023-01-16T08:24:33;6.90;99.90
13326;DHT22;6732;51.044;3.746;2023-01-16T08:26:59;6.90;99.90
13326;DHT22;6732;51.044;3.746;2023-01-16T08:29:26;6.90;99.90
13326;DHT22;6732;51.044;3.746;2023-01-16T08:31:51;6.90;99.90
13326;DHT22;6732;51.044;3.746;2023-01-16T08:34:18;7.00;99.90
13326;DHT22;6732;51.044;3.746;2023-01-16T08:36:44;7.00;99.90
13326;DHT22;6732;51.044;3.746;2023-01-16T08:39:10;7.00;99.90
13326;DHT22;6732;51.044;3.746;2023-01-16T08:41:37;7.00;99.90
13326;DHT22;6732;51.044;3.746;2023-01-16T08:44:21;7.00;99.90
13326;DHT22;6732;51.044;3.746;2023-01-16T08:47:11;7.00;99.90
13326;DHT22;6732;51.044;3.746;2023-01-16T08:49:56;7.00;99.90
13326;DHT22;6732;51.044;3.746;2023-01-16T08:52:41;7.00;99.90
13326;DHT22;6732;51.044;3.746;2023-01-16T08:55:07;7.00;99.90
13326;DHT22;6732;51.044;3.746;2023-01-16T08:57:33;7.00;99.90
13326;DHT22;6732;51.044;3.746;2023-01-16T09:00:00;7.00;99.90
13326;DHT22;6732;51.044;3.746;2023-01-16T09:02:27;7.00;99.90
13326;DHT22;6732;51.044;3.746;2023-01-16T09:04:54;7.00;99.90
13326;DHT22;6732;51.044;3.746;2023-01-16T09:07:21;7.00;99.90
13326;DHT22;6732;51.044;3.746;2023-01-16T09:09:47;7.00;99.90
13326;DHT22;6732;51.044;3.746;2023-01-16T09:12:14;7.00;99.90
13326;DHT22;6732;51.044;3.746;2023-01-16T09:14:59;7.00;99.90
13326;DHT22;6732;51.044;3.746;2023-01-16T09:17:26;7.00;99.90
13326;DHT22;6732;51.044;3.746;2023-01-16T09:19:52;7.00;99.90
13326;DHT22;6732;51.044;3.746;2023-01-16T09:22:18;7.00;99.90
13326;DHT22;6732;51.044;3.746;2023-01-16T09:24:44;7.00;99.90
13326;DHT22;6732;51.044;3.746;2023-01-16T09:27:11;7.00;99.90
13326;DHT22;6732;51.044;3.746;2023-01-16T09:29:40;7.00;99.90
13326;DHT22;6732;51.044;3.746;2023-01-16T09:32:06;7.00;99.90
13326;DHT22;6732;51.044;3.746;2023-01-16T09:34:35;7.00;99.90
13326;DHT22;6732;51.044;3.746;2023-01-16T09:37:01;7.00;99.90
13326;DHT22;6732;51.044;3.746;2023-01-16T09:39:27;7.00;99.90
13326;DHT22;6732;51.044;3.746;2023-01-16T09:45:08;7.00;99.90
13326;DHT22;6732;51.044;3.746;2023-01-16T09:47:36;7.00;99.90
13326;DHT22;6732;51.044;3.746;2023-01-16T09:50:16;7.00;99.90
13326;DHT22;6732;51.044;3.746;2023-01-16T09:52:47;7.00;99.90
13326;DHT22;6732;51.044;3.746;2023-01-16T09:58:39;7.00;99.90
13326;DHT22;6732;51.044;3.746;2023-01-16T10:01:14;7.00;99.90
13326;DHT22;6732;51.044;3.746;2023-01-16T10:03:40;7.00;99.90
13326;DHT22;6732;51.044;3.746;2023-01-16T10:08:46;7.00;99.90
13326;DHT22;6732;51.044;3.746;2023-01-16T10:11:28;7.00;99.90
13326;DHT22;6732;51.044;3.746;2023-01-16T10:21:57;7.10;99.90
13326;DHT22;6732;51.044;3.746;2023-01-16T10:30:20;7.10;99.90
13326;DHT22;6732;51.044;3.746;2023-01-16T10:32:59;7.10;99.90
13326;DHT22;6732;51.044;3.746;2023-01-16T10:35:35;7.10;99.90
13326;DHT22;6732;51.044;3.746;2023-01-16T10:40:39;7.10;99.90
13326;DHT22;6732;51.044;3.746;2023-01-16T10:43:15;7.10;99.90
13326;DHT22;6732;51.044;3.746;2023-01-16T10:46:13;7.10;99.90
13326;DHT22;6732;51.044;3.746;2023-01-16T10:48:59;7.10;99.90
13326;DHT22;6732;51.044;3.746;2023-01-16T10:51:44;7.10;99.90
13326;DHT22;6732;51.044;3.746;2023-01-16T10:54:10;7.10;99.90
13326;DHT22;6732;51.044;3.746;2023-01-16T10:56:36;7.10;99.90
13326;DHT22;6732;51.044;3.746;2023-01-16T10:59:11;7.10;99.90
13326;DHT22;6732;51.044;3.746;2023-01-16T11:01:40;7.10;99.90
13326;DHT22;6732;51.044;3.746;2023-01-16T11:04:10;7.10;99.90
13326;DHT22;6732;51.044;3.746;2023-01-16T11:06:36;7.20;99.90
13326;DHT22;6732;51.044;3.746;2023-01-16T11:09:16;7.20;99.90
13326;DHT22;6732;51.044;3.746;2023-01-16T11:11:43;7.20;99.90
13326;DHT22;6732;51.044;3.746;2023-01-16T11:14:38;7.20;99.90
13326;DHT22;6732;51.044;3.746;2023-01-16T11:20:34;7.20;99.90
13326;DHT22;6732;51.044;3.746;2023-01-16T11:23:21;7.20;99.90
13326;DHT22;6732;51.044;3.746;2023-01-16T11:25:50;7.20;99.90
13326;DHT22;6732;51.044;3.746;2023-01-16T11:28:26;7.30;99.90
13326;DHT22;6732;51.044;3.746;2023-01-16T11:30:56;7.30;99.90
13326;DHT22;6732;51.044;3.746;2023-01-16T11:33:33;7.30;99.90
13326;DHT22;6732;51.044;3.746;2023-01-16T11:36:02;7.30;99.90
13326;DHT22;6732;51.044;3.746;2023-01-16T11:38:33;7.30;99.90
13326;DHT22;6732;51.044;3.746;2023-01-16T11:41:02;7.30;99.90
13326;DHT22;6732;51.044;3.746;2023-01-16T11:43:33;7.30;99.90
13326;DHT22;6732;51.044;3.746;2023-01-16T11:46:36;7.30;99.90
13326;DHT22;6732;51.044;3.746;2023-01-16T11:49:17;7.40;99.90
13326;DHT22;6732;51.044;3.746;2023-01-16T11:51:43;7.40;99.90
13326;DHT22;6732;51.044;3.746;2023-01-16T11:54:16;7.40;99.90
13326;DHT22;6732;51.044;3.746;2023-01-16T12:02:41;7.40;99.90
13326;DHT22;6732;51.044;3.746;2023-01-16T12:08:20;7.40;99.90
13326;DHT22;6732;51.044;3.746;2023-01-16T12:11:00;7.40;99.90
13326;DHT22;6732;51.044;3.746;2023-01-16T12:13:48;7.40;99.90
13326;DHT22;6732;51.044;3.746;2023-01-16T12:16:40;7.50;99.90
13326;DHT22;6732;51.044;3.746;2023-01-16T12:22:09;7.50;99.90
13326;DHT22;6732;51.044;3.746;2023-01-16T12:25:08;7.60;99.90
13326;DHT22;6732;51.044;3.746;2023-01-16T12:28:00;7.60;99.90
13326;DHT22;6732;51.044;3.746;2023-01-16T12:30:53;7.60;99.90
13326;DHT22;6732;51.044;3.746;2023-01-16T12:33:43;7.60;99.90
13326;DHT22;6732;51.044;3.746;2023-01-16T12:41:59;7.60;99.90
13326;DHT22;6732;51.044;3.746;2023-01-16T12:47:54;7.60;99.90
13326;DHT22;6732;51.044;3.746;2023-01-16T12:50:41;7.60;99.90
13326;DHT22;6732;51.044;3.746;2023-01-16T12:56:13;7.70;99.90
13326;DHT22;6732;51.044;3.746;2023-01-16T12:58:51;7.70;99.90
13326;DHT22;6732;51.044;3.746;2023-01-16T13:01:23;7.70;99.90
13326;DHT22;6732;51.044;3.746;2023-01-16T13:06:52;7.70;99.90
13326;DHT22;6732;51.044;3.746;2023-01-16T13:09:31;7.70;99.90
13326;DHT22;6732;51.044;3.746;2023-01-16T13:15:05;7.70;99.90
13326;DHT22;6732;51.044;3.746;2023-01-16T13:17:48;7.70;99.90
13326;DHT22;6732;51.044;3.746;2023-01-16T13:20:17;7.70;99.90
13326;DHT22;6732;51.044;3.746;2023-01-16T13:23:03;7.80;99.90
13326;DHT22;6732;51.044;3.746;2023-01-16T13:25:40;7.80;99.90
13326;DHT22;6732;51.044;3.746;2023-01-16T13:31:45;7.70;99.90
13326;DHT22;6732;51.044;3.746;2023-01-16T13:42:10;7.80;99.90
13326;DHT22;6732;51.044;3.746;2023-01-16T13:44:39;7.80;99.90
13326;DHT22;6732;51.044;3.746;2023-01-16T13:47:28;7.90;99.90
13326;DHT22;6732;51.044;3.746;2023-01-16T13:50:06;7.90;99.90
13326;DHT22;6732;51.044;3.746;2023-01-16T13:52:32;7.80;99.90
13326;DHT22;6732;51.044;3.746;2023-01-16T13:55:01;7.80;99.90
13326;DHT22;6732;51.044;3.746;2023-01-16T13:57:32;7.80;99.90
13326;DHT22;6732;51.044;3.746;2023-01-16T14:00:09;7.80;99.90
13326;DHT22;6732;51.044;3.746;2023-01-16T14:08:24;7.80;99.90
13326;DHT22;6732;51.044;3.746;2023-01-16T14:11:22;7.80;99.90
13326;DHT22;6732;51.044;3.746;2023-01-16T14:13:49;7.80;99.90
13326;DHT22;6732;51.044;3.746;2023-01-16T14:16:36;7.80;99.90
13326;DHT22;6732;51.044;3.746;2023-01-16T14:21:42;7.80;99.90
13326;DHT22;6732;51.044;3.746;2023-01-16T14:24:20;7.70;99.90
13326;DHT22;6732;51.044;3.746;2023-01-16T14:26:52;7.80;99.90
13326;DHT22;6732;51.044;3.746;2023-01-16T14:29:28;7.70;99.90
13326;DHT22;6732;51.044;3.746;2023-01-16T14:31:59;7.70;99.90
13326;DHT22;6732;51.044;3.746;2023-01-16T14:34:37;7.70;99.90
13326;DHT22;6732;51.044;3.746;2023-01-16T14:37:26;7.60;99.90
13326;DHT22;6732;51.044;3.746;2023-01-16T14:39:57;7.60;99.90
13326;DHT22;6732;51.044;3.746;2023-01-16T14:45:30;7.50;99.90
13326;DHT22;6732;51.044;3.746;2023-01-16T14:51:15;7.40;99.90
13326;DHT22;6732;51.044;3.746;2023-01-16T14:54:16;7.40;99.90
13326;DHT22;6732;51.044;3.746;2023-01-16T14:59:50;7.30;99.90
13326;DHT22;6732;51.044;3.746;2023-01-16T15:02:25;7.40;99.90
13326;DHT22;6732;51.044;3.746;2023-01-16T15:07:47;7.30;99.90
13326;DHT22;6732;51.044;3.746;2023-01-16T15:10:40;7.30;99.90
13326;DHT22;6732;51.044;3.746;2023-01-16T15:13:25;7.30;99.90
13326;DHT22;6732;51.044;3.746;2023-01-16T15:18:18;7.20;99.90
13326;DHT22;6732;51.044;3.746;2023-01-16T15:21:13;7.20;99.90
13326;DHT22;6732;51.044;3.746;2023-01-16T15:23:58;7.20;99.90
13326;DHT22;6732;51.044;3.746;2023-01-16T15:29:05;7.20;99.90
13326;DHT22;6732;51.044;3.746;2023-01-16T15:31:43;7.20;99.90
13326;DHT22;6732;51.044;3.746;2023-01-16T15:36:44;7.10;99.90
13326;DHT22;6732;51.044;3.746;2023-01-16T15:42:06;7.10;99.90
13326;DHT22;6732;51.044;3.746;2023-01-16T15:44:52;7.10;99.90
13326;DHT22;6732;51.044;3.746;2023-01-16T15:50:55;7.10;99.90
13326;DHT22;6732;51.044;3.746;2023-01-16T15:53:24;7.10;99.90
13326;DHT22;6732;51.044;3.746;2023-01-16T15:55:52;7.10;99.90
13326;DHT22;6732;51.044;3.746;2023-01-16T15:58:22;7.10;99.90
13326;DHT22;6732;51.044;3.746;2023-01-16T16:01:04;7.10;99.90
13326;DHT22;6732;51.044;3.746;2023-01-16T16:03:43;7.10;99.90
13326;DHT22;6732;51.044;3.746;2023-01-16T16:06:12;7.10;99.90
13326;DHT22;6732;51.044;3.746;2023-01-16T16:08:42;7.10;99.90
13326;DHT22;6732;51.044;3.746;2023-01-16T16:11:21;7.10;99.90
13326;DHT22;6732;51.044;3.746;2023-01-16T16:14:10;7.10;99.90
13326;DHT22;6732;51.044;3.746;2023-01-16T16:17:01;7.10;99.90
13326;DHT22;6732;51.044;3.746;2023-01-16T16:19:45;7.10;99.90
13326;DHT22;6732;51.044;3.746;2023-01-16T16:22:21;7.10;99.90
13326;DHT22;6732;51.044;3.746;2023-01-16T16:25:28;7.10;99.90
13326;DHT22;6732;51.044;3.746;2023-01-16T16:27:56;7.10;99.90
13326;DHT22;6732;51.044;3.746;2023-01-16T16:30:25;7.00;99.90
13326;DHT22;6732;51.044;3.746;2023-01-16T16:32:52;7.00;99.90
13326;DHT22;6732;51.044;3.746;2023-01-16T16:35:31;7.00;99.90
13326;DHT22;6732;51.044;3.746;2023-01-16T16:37:59;7.00;99.90
13326;DHT22;6732;51.044;3.746;2023-01-16T16:40:25;6.90;99.90
13326;DHT22;6732;51.044;3.746;2023-01-16T16:42:56;6.90;99.90
13326;DHT22;6732;51.044;3.746;2023-01-16T16:45:27;6.90;99.90
13326;DHT22;6732;51.044;3.746;2023-01-16T16:50:38;6.80;99.90
13326;DHT22;6732;51.044;3.746;2023-01-16T16:53:11;6.80;99.90
13326;DHT22;6732;51.044;3.746;2023-01-16T16:55:40;6.80;99.90
13326;DHT22;6732;51.044;3.746;2023-01-16T16:58:27;6.80;99.90
13326;DHT22;6732;51.044;3.746;2023-01-16T17:00:53;6.70;99.90
13326;DHT22;6732;51.044;3.746;2023-01-16T17:03:26;6.70;99.90
13326;DHT22;6732;51.044;3.746;2023-01-16T17:05:53;6.80;99.90
13326;DHT22;6732;51.044;3.746;2023-01-16T17:08:22;6.80;99.90
13326;DHT22;6732;51.044;3.746;2023-01-16T17:10:50;6.80;99.90
13326;DHT22;6732;51.044;3.746;2023-01-16T17:13:20;6.80;99.90
13326;DHT22;6732;51.044;3.746;2023-01-16T17:15:50;6.80;99.90
13326;DHT22;6732;51.044;3.746;2023-01-16T17:18:16;6.80;99.90
13326;DHT22;6732;51.044;3.746;2023-01-16T17:20:43;6.80;99.90
13326;DHT22;6732;51.044;3.746;2023-01-16T17:23:14;6.90;99.90
13326;DHT22;6732;51.044;3.746;2023-01-16T17:25:41;6.90;99.90
13326;DHT22;6732;51.044;3.746;2023-01-16T17:28:15;6.90;99.90
13326;DHT22;6732;51.044;3.746;2023-01-16T17:30:41;6.90;99.90
13326;DHT22;6732;51.044;3.746;2023-01-16T17:33:12;6.90;99.90
13326;DHT22;6732;51.044;3.746;2023-01-16T17:35:46;6.90;99.90
13326;DHT22;6732;51.044;3.746;2023-01-16T17:38:25;6.90;99.90
13326;DHT22;6732;51.044;3.746;2023-01-16T17:40:51;6.90;99.90
13326;DHT22;6732;51.044;3.746;2023-01-16T17:43:19;6.90;99.90
13326;DHT22;6732;51.044;3.746;2023-01-16T17:46:15;6.90;99.90
13326;DHT22;6732;51.044;3.746;2023-01-16T17:48:41;6.80;99.90
13326;DHT22;6732;51.044;3.746;2023-01-16T17:51:08;6.80;99.90
13326;DHT22;6732;51.044;3.746;2023-01-16T17:53:34;6.80;99.90
13326;DHT22;6732;51.044;3.746;2023-01-16T17:56:03;6.80;99.90
13326;DHT22;6732;51.044;3.746;2023-01-16T17:58:37;6.80;99.90
13326;DHT22;6732;51.044;3.746;2023-01-16T18:01:20;6.80;99.90
13326;DHT22;6732;51.044;3.746;2023-01-16T18:03:52;6.70;99.90
13326;DHT22;6732;51.044;3.746;2023-01-16T18:06:27;6.70;99.90
13326;DHT22;6732;51.044;3.746;2023-01-16T18:08:54;6.70;99.90
13326;DHT22;6732;51.044;3.746;2023-01-16T18:11:21;6.70;99.90
13326;DHT22;6732;51.044;3.746;2023-01-16T18:14:09;6.70;99.90
13326;DHT22;6732;51.044;3.746;2023-01-16T18:16:54;6.70;99.90
13326;DHT22;6732;51.044;3.746;2023-01-16T18:19:38;6.60;99.90
13326;DHT22;6732;51.044;3.746;2023-01-16T18:22:04;6.60;99.90
13326;DHT22;6732;51.044;3.746;2023-01-16T18:24:33;6.60;99.90
13326;DHT22;6732;51.044;3.746;2023-01-16T18:27:01;6.60;99.90
13326;DHT22;6732;51.044;3.746;2023-01-16T18:29:28;6.60;99.90
13326;DHT22;6732;51.044;3.746;2023-01-16T18:31:53;6.60;99.90
13326;DHT22;6732;51.044;3.746;2023-01-16T18:34:39;6.50;99.90
13326;DHT22;6732;51.044;3.746;2023-01-16T18:37:05;6.50;99.90
13326;DHT22;6732;51.044;3.746;2023-01-16T18:39:31;6.60;99.90
13326;DHT22;6732;51.044;3.746;2023-01-16T18:42:16;6.60;99.90
13326;DHT22;6732;51.044;3.746;2023-01-16T18:45:01;6.50;99.90
13326;DHT22;6732;51.044;3.746;2023-01-16T18:47:45;6.50;99.90
13326;DHT22;6732;51.044;3.746;2023-01-16T18:50:30;6.50;99.90
13326;DHT22;6732;51.044;3.746;2023-01-16T18:53:23;6.50;99.90
13326;DHT22;6732;51.044;3.746;2023-01-16T18:56:22;6.50;99.90
13326;DHT22;6732;51.044;3.746;2023-01-16T18:59:33;6.50;99.90
13326;DHT22;6732;51.044;3.746;2023-01-16T19:04:47;6.50;99.90